Inlet Beach, Florida
Current Conditions -  °F | °C
As of 9:53 AM on Saturday 25 Oct 2014 (Local Time) from KECP Reporting Station
Clear Clear  
Wind Chill: 66°   Ceiling: Unl
Heat Index: 66°   Visibility: 10mi
Dew Point: 47°   Wind: 6mph
Humidity: 50%   Direction: 340°NNW
Pressure: 30.08"   Gusts: NA
Location:  30.3525°N, 85.9093°W
Report Text: KECP 251453Z 34005KT 10SM CLR 19/08 A3008 RMK AO2 SLP196 T01890083 51012 $
Loading
Personal Weather Stations






























Interactive Weather Map
Tropical Storm Tracking
New forecast layout! Learn more

10-Day Weather Forecast

Advertisements
Track Severe Weather on mobile